sensor_id;sensor_type;location;lat;lon;timestamp;temperature;humidity
792;DHT22;379;49.022;12.148;2023-12-29T00:01:24;4.90;99.90
792;DHT22;379;49.022;12.148;2023-12-29T00:03:56;4.90;99.90
792;DHT22;379;49.022;12.148;2023-12-29T00:06:23;4.90;99.90
792;DHT22;379;49.022;12.148;2023-12-29T00:08:50;5.00;99.90
792;DHT22;379;49.022;12.148;2023-12-29T00:11:17;5.00;99.90
792;DHT22;379;49.022;12.148;2023-12-29T00:13:44;5.00;99.90
792;DHT22;379;49.022;12.148;2023-12-29T00:16:10;4.90;99.90
792;DHT22;379;49.022;12.148;2023-12-29T00:18:37;4.80;99.90
792;DHT22;379;49.022;12.148;2023-12-29T00:21:06;4.70;99.90
792;DHT22;379;49.022;12.148;2023-12-29T00:23:33;4.60;99.90
792;DHT22;379;49.022;12.148;2023-12-29T00:25:59;4.60;99.90
792;DHT22;379;49.022;12.148;2023-12-29T00:28:26;4.50;99.90
792;DHT22;379;49.022;12.148;2023-12-29T00:30:53;4.50;99.90
792;DHT22;379;49.022;12.148;2023-12-29T00:33:19;4.40;99.90
792;DHT22;379;49.022;12.148;2023-12-29T00:35:46;4.40;99.90
792;DHT22;379;49.022;12.148;2023-12-29T00:38:14;4.50;99.90
792;DHT22;379;49.022;12.148;2023-12-29T00:40:41;4.60;99.90
792;DHT22;379;49.022;12.148;2023-12-29T00:43:08;4.60;99.90
792;DHT22;379;49.022;12.148;2023-12-29T00:45:34;4.50;99.90
792;DHT22;379;49.022;12.148;2023-12-29T00:48:02;4.50;99.90
792;DHT22;379;49.022;12.148;2023-12-29T00:50:29;4.50;99.90
792;DHT22;379;49.022;12.148;2023-12-29T00:52:55;4.40;99.90
792;DHT22;379;49.022;12.148;2023-12-29T00:55:23;4.30;99.90
792;DHT22;379;49.022;12.148;2023-12-29T00:57:50;4.20;99.90
792;DHT22;379;49.022;12.148;2023-12-29T01:00:17;4.20;99.90
792;DHT22;379;49.022;12.148;2023-12-29T01:02:44;4.30;99.90
792;DHT22;379;49.022;12.148;2023-12-29T01:05:14;4.40;99.90
792;DHT22;379;49.022;12.148;2023-12-29T01:07:41;4.50;99.90
792;DHT22;379;49.022;12.148;2023-12-29T01:10:08;4.60;99.90
792;DHT22;379;49.022;12.148;2023-12-29T01:12:36;4.70;99.90
792;DHT22;379;49.022;12.148;2023-12-29T01:15:04;4.70;99.90
792;DHT22;379;49.022;12.148;2023-12-29T01:17:31;4.70;99.90
792;DHT22;379;49.022;12.148;2023-12-29T01:19:58;4.70;99.90
792;DHT22;379;49.022;12.148;2023-12-29T01:22:24;4.70;99.90
792;DHT22;379;49.022;12.148;2023-12-29T01:24:51;4.60;99.90
792;DHT22;379;49.022;12.148;2023-12-29T01:27:18;4.60;99.90
792;DHT22;379;49.022;12.148;2023-12-29T01:29:46;4.70;99.90
792;DHT22;379;49.022;12.148;2023-12-29T01:32:13;4.70;99.90
792;DHT22;379;49.022;12.148;2023-12-29T01:34:39;4.80;99.90
792;DHT22;379;49.022;12.148;2023-12-29T01:37:06;4.90;99.90
792;DHT22;379;49.022;12.148;2023-12-29T01:39:33;5.00;99.90
792;DHT22;379;49.022;12.148;2023-12-29T01:42:00;5.10;99.90
792;DHT22;379;49.022;12.148;2023-12-29T01:44:27;5.10;99.90
792;DHT22;379;49.022;12.148;2023-12-29T01:46:59;5.20;99.90
792;DHT22;379;49.022;12.148;2023-12-29T01:49:26;5.20;99.90
792;DHT22;379;49.022;12.148;2023-12-29T01:51:55;5.30;99.90
792;DHT22;379;49.022;12.148;2023-12-29T01:54:24;5.30;99.90
792;DHT22;379;49.022;12.148;2023-12-29T01:56:54;5.30;99.90
792;DHT22;379;49.022;12.148;2023-12-29T01:59:22;5.40;99.90
792;DHT22;379;49.022;12.148;2023-12-29T02:01:48;5.40;99.90
792;DHT22;379;49.022;12.148;2023-12-29T02:04:17;5.30;99.90
792;DHT22;379;49.022;12.148;2023-12-29T02:06:44;5.30;99.90
792;DHT22;379;49.022;12.148;2023-12-29T02:09:11;5.30;99.90
792;DHT22;379;49.022;12.148;2023-12-29T02:11:38;5.30;99.90
792;DHT22;379;49.022;12.148;2023-12-29T02:14:05;5.20;99.90
792;DHT22;379;49.022;12.148;2023-12-29T02:16:38;5.10;99.90
792;DHT22;379;49.022;12.148;2023-12-29T02:19:13;5.10;99.90
792;DHT22;379;49.022;12.148;2023-12-29T02:21:48;5.00;99.90
792;DHT22;379;49.022;12.148;2023-12-29T02:24:14;5.00;99.90
792;DHT22;379;49.022;12.148;2023-12-29T02:26:45;5.00;99.90
792;DHT22;379;49.022;12.148;2023-12-29T02:29:14;5.10;99.90
792;DHT22;379;49.022;12.148;2023-12-29T02:31:44;5.10;99.90
792;DHT22;379;49.022;12.148;2023-12-29T02:34:17;5.10;99.90
792;DHT22;379;49.022;12.148;2023-12-29T02:36:44;5.10;99.90
792;DHT22;379;49.022;12.148;2023-12-29T02:39:12;5.00;99.90
792;DHT22;379;49.022;12.148;2023-12-29T02:41:39;4.90;99.90
792;DHT22;379;49.022;12.148;2023-12-29T02:44:07;4.80;99.90
792;DHT22;379;49.022;12.148;2023-12-29T02:46:34;4.80;99.90
792;DHT22;379;49.022;12.148;2023-12-29T02:49:00;4.70;99.90
792;DHT22;379;49.022;12.148;2023-12-29T02:51:27;4.60;99.90
792;DHT22;379;49.022;12.148;2023-12-29T02:53:54;4.60;99.90
792;DHT22;379;49.022;12.148;2023-12-29T02:56:20;4.60;99.90
792;DHT22;379;49.022;12.148;2023-12-29T02:58:47;4.60;99.90
792;DHT22;379;49.022;12.148;2023-12-29T03:01:16;4.50;99.90
792;DHT22;379;49.022;12.148;2023-12-29T03:03:42;4.50;99.90
792;DHT22;379;49.022;12.148;2023-12-29T03:06:09;4.40;99.90
792;DHT22;379;49.022;12.148;2023-12-29T03:08:36;4.30;99.90
792;DHT22;379;49.022;12.148;2023-12-29T03:11:03;4.30;99.90
792;DHT22;379;49.022;12.148;2023-12-29T03:13:29;4.20;99.90
792;DHT22;379;49.022;12.148;2023-12-29T03:15:56;4.10;99.90
792;DHT22;379;49.022;12.148;2023-12-29T03:18:24;4.10;99.90
792;DHT22;379;49.022;12.148;2023-12-29T03:20:51;4.10;99.90
792;DHT22;379;49.022;12.148;2023-12-29T03:23:18;4.10;99.90
792;DHT22;379;49.022;12.148;2023-12-29T03:25:44;4.10;99.90
792;DHT22;379;49.022;12.148;2023-12-29T03:28:11;4.20;99.90
792;DHT22;379;49.022;12.148;2023-12-29T03:30:38;4.20;99.90
792;DHT22;379;49.022;12.148;2023-12-29T03:33:04;4.30;99.90
792;DHT22;379;49.022;12.148;2023-12-29T03:35:33;4.30;99.90
792;DHT22;379;49.022;12.148;2023-12-29T03:37:59;4.20;99.90
792;DHT22;379;49.022;12.148;2023-12-29T03:40:26;4.30;99.90
792;DHT22;379;49.022;12.148;2023-12-29T03:42:53;4.30;99.90
792;DHT22;379;49.022;12.148;2023-12-29T03:45:19;4.30;99.90
792;DHT22;379;49.022;12.148;2023-12-29T03:47:46;4.20;99.90
792;DHT22;379;49.022;12.148;2023-12-29T03:50:13;4.20;99.90
792;DHT22;379;49.022;12.148;2023-12-29T03:52:41;4.10;99.90
792;DHT22;379;49.022;12.148;2023-12-29T03:55:08;4.10;99.90
792;DHT22;379;49.022;12.148;2023-12-29T03:57:36;4.10;99.90
792;DHT22;379;49.022;12.148;2023-12-29T04:00:04;4.20;99.90
792;DHT22;379;49.022;12.148;2023-12-29T04:02:31;4.20;99.90
792;DHT22;379;49.022;12.148;2023-12-29T04:04:59;4.30;99.90
792;DHT22;379;49.022;12.148;2023-12-29T04:07:26;4.30;99.90
792;DHT22;379;49.022;12.148;2023-12-29T04:09:54;4.40;99.90
792;DHT22;379;49.022;12.148;2023-12-29T04:12:21;4.30;99.90
792;DHT22;379;49.022;12.148;2023-12-29T04:14:48;4.10;99.90
792;DHT22;379;49.022;12.148;2023-12-29T04:17:15;4.00;99.90
792;DHT22;379;49.022;12.148;2023-12-29T04:19:42;3.90;99.90
792;DHT22;379;49.022;12.148;2023-12-29T04:22:09;3.70;99.90
792;DHT22;379;49.022;12.148;2023-12-29T04:24:37;3.70;99.90
792;DHT22;379;49.022;12.148;2023-12-29T04:27:06;3.60;99.90
792;DHT22;379;49.022;12.148;2023-12-29T04:29:33;3.70;99.90
792;DHT22;379;49.022;12.148;2023-12-29T04:31:59;3.70;99.90
792;DHT22;379;49.022;12.148;2023-12-29T04:34:26;3.70;99.90
792;DHT22;379;49.022;12.148;2023-12-29T04:36:53;3.70;99.90
792;DHT22;379;49.022;12.148;2023-12-29T04:39:19;3.70;99.90
792;DHT22;379;49.022;12.148;2023-12-29T04:41:46;3.70;99.90
792;DHT22;379;49.022;12.148;2023-12-29T04:44:14;3.70;99.90
792;DHT22;379;49.022;12.148;2023-12-29T04:46:41;3.80;99.90
792;DHT22;379;49.022;12.148;2023-12-29T04:49:08;3.90;99.90
792;DHT22;379;49.022;12.148;2023-12-29T04:51:34;3.90;99.90
792;DHT22;379;49.022;12.148;2023-12-29T04:54:01;3.90;99.90
792;DHT22;379;49.022;12.148;2023-12-29T04:56:28;3.90;99.90
792;DHT22;379;49.022;12.148;2023-12-29T04:58:55;3.80;99.90
792;DHT22;379;49.022;12.148;2023-12-29T05:01:24;3.80;99.90
792;DHT22;379;49.022;12.148;2023-12-29T05:03:50;3.80;99.90
792;DHT22;379;49.022;12.148;2023-12-29T05:06:17;3.90;99.90
792;DHT22;379;49.022;12.148;2023-12-29T05:08:44;3.90;99.90
792;DHT22;379;49.022;12.148;2023-12-29T05:11:10;3.90;99.90
792;DHT22;379;49.022;12.148;2023-12-29T05:13:37;3.90;99.90
792;DHT22;379;49.022;12.148;2023-12-29T05:16:05;3.90;99.90
792;DHT22;379;49.022;12.148;2023-12-29T05:18:33;3.80;99.90
792;DHT22;379;49.022;12.148;2023-12-29T05:20:59;3.70;99.90
792;DHT22;379;49.022;12.148;2023-12-29T05:23:26;3.70;99.90
792;DHT22;379;49.022;12.148;2023-12-29T05:25:53;3.60;99.90
792;DHT22;379;49.022;12.148;2023-12-29T05:28:20;3.60;99.90
792;DHT22;379;49.022;12.148;2023-12-29T05:30:46;3.60;99.90
792;DHT22;379;49.022;12.148;2023-12-29T05:33:13;3.50;99.90
792;DHT22;379;49.022;12.148;2023-12-29T05:35:41;3.60;99.90
792;DHT22;379;49.022;12.148;2023-12-29T05:38:08;3.50;99.90
792;DHT22;379;49.022;12.148;2023-12-29T05:40:35;3.50;99.90
792;DHT22;379;49.022;12.148;2023-12-29T05:43:01;3.50;99.90
792;DHT22;379;49.022;12.148;2023-12-29T05:45:28;3.70;99.90
792;DHT22;379;49.022;12.148;2023-12-29T05:47:55;3.80;99.90
792;DHT22;379;49.022;12.148;2023-12-29T05:50:22;3.80;99.90
792;DHT22;379;49.022;12.148;2023-12-29T05:52:50;3.80;99.90
792;DHT22;379;49.022;12.148;2023-12-29T05:55:17;3.70;99.90
792;DHT22;379;49.022;12.148;2023-12-29T05:57:44;3.60;99.90
792;DHT22;379;49.022;12.148;2023-12-29T06:00:12;3.50;99.90
792;DHT22;379;49.022;12.148;2023-12-29T06:02:40;3.40;99.90
792;DHT22;379;49.022;12.148;2023-12-29T06:05:09;3.30;99.90
792;DHT22;379;49.022;12.148;2023-12-29T06:07:36;3.40;99.90
792;DHT22;379;49.022;12.148;2023-12-29T06:10:06;3.40;99.90
792;DHT22;379;49.022;12.148;2023-12-29T06:12:33;3.30;99.90
792;DHT22;379;49.022;12.148;2023-12-29T06:15:00;3.30;99.90
792;DHT22;379;49.022;12.148;2023-12-29T06:17:27;3.20;99.90
792;DHT22;379;49.022;12.148;2023-12-29T06:19:54;3.20;99.90
792;DHT22;379;49.022;12.148;2023-12-29T06:22:21;3.20;99.90
792;DHT22;379;49.022;12.148;2023-12-29T06:24:47;3.20;99.90
792;DHT22;379;49.022;12.148;2023-12-29T06:27:16;3.20;99.90
792;DHT22;379;49.022;12.148;2023-12-29T06:29:42;3.20;99.90
792;DHT22;379;49.022;12.148;2023-12-29T06:32:09;3.20;99.90
792;DHT22;379;49.022;12.148;2023-12-29T06:34:36;3.20;99.90
792;DHT22;379;49.022;12.148;2023-12-29T06:37:03;3.30;99.90
792;DHT22;379;49.022;12.148;2023-12-29T06:39:30;3.40;99.90
792;DHT22;379;49.022;12.148;2023-12-29T06:41:57;3.50;99.90
792;DHT22;379;49.022;12.148;2023-12-29T06:44:25;3.70;99.90
792;DHT22;379;49.022;12.148;2023-12-29T06:46:51;3.80;99.90
792;DHT22;379;49.022;12.148;2023-12-29T06:49:18;4.00;99.90
792;DHT22;379;49.022;12.148;2023-12-29T06:51:45;4.10;99.90
792;DHT22;379;49.022;12.148;2023-12-29T06:54:12;4.20;99.90
792;DHT22;379;49.022;12.148;2023-12-29T06:56:39;4.40;99.90
792;DHT22;379;49.022;12.148;2023-12-29T06:59:06;4.50;99.90
792;DHT22;379;49.022;12.148;2023-12-29T07:01:38;4.60;99.90
792;DHT22;379;49.022;12.148;2023-12-29T07:04:05;4.70;99.90
792;DHT22;379;49.022;12.148;2023-12-29T07:06:35;4.80;99.90
792;DHT22;379;49.022;12.148;2023-12-29T07:09:02;4.90;99.90
792;DHT22;379;49.022;12.148;2023-12-29T07:11:29;4.90;99.90
792;DHT22;379;49.022;12.148;2023-12-29T07:13:56;4.90;99.90
792;DHT22;379;49.022;12.148;2023-12-29T07:16:23;4.90;99.90
792;DHT22;379;49.022;12.148;2023-12-29T07:18:51;4.90;99.90
792;DHT22;379;49.022;12.148;2023-12-29T07:21:18;5.00;99.90
792;DHT22;379;49.022;12.148;2023-12-29T07:23:45;5.00;99.90
792;DHT22;379;49.022;12.148;2023-12-29T07:26:12;5.10;99.90
792;DHT22;379;49.022;12.148;2023-12-29T07:28:38;5.20;99.90
792;DHT22;379;49.022;12.148;2023-12-29T07:31:05;5.20;99.90
792;DHT22;379;49.022;12.148;2023-12-29T07:33:33;5.30;99.90
792;DHT22;379;49.022;12.148;2023-12-29T07:36:02;5.30;99.90
792;DHT22;379;49.022;12.148;2023-12-29T07:38:29;5.40;99.90
792;DHT22;379;49.022;12.148;2023-12-29T07:40:55;5.40;99.90
792;DHT22;379;49.022;12.148;2023-12-29T07:43:22;5.50;99.90
792;DHT22;379;49.022;12.148;2023-12-29T07:45:49;5.50;99.90
792;DHT22;379;49.022;12.148;2023-12-29T07:48:16;5.50;99.90
792;DHT22;379;49.022;12.148;2023-12-29T07:50:43;5.50;99.90
792;DHT22;379;49.022;12.148;2023-12-29T07:53:14;5.50;99.90
792;DHT22;379;49.022;12.148;2023-12-29T07:55:42;5.40;99.90
792;DHT22;379;49.022;12.148;2023-12-29T07:58:09;5.40;99.90
792;DHT22;379;49.022;12.148;2023-12-29T08:00:36;5.30;99.90
792;DHT22;379;49.022;12.148;2023-12-29T08:03:04;5.20;99.90
792;DHT22;379;49.022;12.148;2023-12-29T08:05:33;5.20;99.90
792;DHT22;379;49.022;12.148;2023-12-29T08:08:00;5.20;99.90
792;DHT22;379;49.022;12.148;2023-12-29T08:10:28;5.20;99.90
792;DHT22;379;49.022;12.148;2023-12-29T08:12:56;5.30;99.90
792;DHT22;379;49.022;12.148;2023-12-29T08:15:24;5.50;99.90
792;DHT22;379;49.022;12.148;2023-12-29T08:17:51;5.70;99.90
792;DHT22;379;49.022;12.148;2023-12-29T08:20:18;5.80;99.90
792;DHT22;379;49.022;12.148;2023-12-29T08:22:46;5.90;99.90
792;DHT22;379;49.022;12.148;2023-12-29T08:25:13;5.80;99.90
792;DHT22;379;49.022;12.148;2023-12-29T08:27:41;5.90;99.90
792;DHT22;379;49.022;12.148;2023-12-29T08:30:08;6.00;99.90
792;DHT22;379;49.022;12.148;2023-12-29T08:32:36;6.10;99.90
792;DHT22;379;49.022;12.148;2023-12-29T08:35:03;6.30;99.90
792;DHT22;379;49.022;12.148;2023-12-29T08:37:30;6.50;99.90
792;DHT22;379;49.022;12.148;2023-12-29T08:39:58;6.60;99.90
792;DHT22;379;49.022;12.148;2023-12-29T08:42:25;6.60;99.90
792;DHT22;379;49.022;12.148;2023-12-29T08:44:54;6.50;99.90
792;DHT22;379;49.022;12.148;2023-12-29T08:47:21;6.40;99.90
792;DHT22;379;49.022;12.148;2023-12-29T08:49:48;6.30;99.90
792;DHT22;379;49.022;12.148;2023-12-29T08:52:15;6.30;99.90
792;DHT22;379;49.022;12.148;2023-12-29T08:54:42;6.30;99.90
792;DHT22;379;49.022;12.148;2023-12-29T08:57:08;6.30;99.90
792;DHT22;379;49.022;12.148;2023-12-29T08:59:35;6.30;99.90
792;DHT22;379;49.022;12.148;2023-12-29T09:02:03;6.30;99.90
792;DHT22;379;49.022;12.148;2023-12-29T09:04:30;6.40;99.90
792;DHT22;379;49.022;12.148;2023-12-29T09:06:57;6.50;99.90
792;DHT22;379;49.022;12.148;2023-12-29T09:09:24;6.60;99.90
792;DHT22;379;49.022;12.148;2023-12-29T09:11:50;6.70;99.90
792;DHT22;379;49.022;12.148;2023-12-29T09:14:17;7.00;99.90
792;DHT22;379;49.022;12.148;2023-12-29T09:16:44;7.40;99.90
792;DHT22;379;49.022;12.148;2023-12-29T09:19:13;7.70;99.90
792;DHT22;379;49.022;12.148;2023-12-29T09:21:39;8.00;99.90
792;DHT22;379;49.022;12.148;2023-12-29T09:24:06;8.10;99.90
792;DHT22;379;49.022;12.148;2023-12-29T09:26:33;8.10;99.90
792;DHT22;379;49.022;12.148;2023-12-29T09:29:00;8.00;99.90
792;DHT22;379;49.022;12.148;2023-12-29T09:31:26;7.90;99.90
792;DHT22;379;49.022;12.148;2023-12-29T09:33:53;7.90;99.90
792;DHT22;379;49.022;12.148;2023-12-29T09:36:23;7.90;99.90
792;DHT22;379;49.022;12.148;2023-12-29T09:38:50;8.00;99.90
792;DHT22;379;49.022;12.148;2023-12-29T09:41:18;8.20;99.90
792;DHT22;379;49.022;12.148;2023-12-29T09:43:48;8.40;99.90
792;DHT22;379;49.022;12.148;2023-12-29T09:46:17;8.50;99.90
792;DHT22;379;49.022;12.148;2023-12-29T09:48:45;8.50;99.90
792;DHT22;379;49.022;12.148;2023-12-29T09:51:13;8.40;99.90
792;DHT22;379;49.022;12.148;2023-12-29T09:53:42;8.30;99.90
792;DHT22;379;49.022;12.148;2023-12-29T09:56:10;8.30;99.90
792;DHT22;379;49.022;12.148;2023-12-29T09:58:36;8.30;99.90
792;DHT22;379;49.022;12.148;2023-12-29T10:01:04;8.30;99.90
792;DHT22;379;49.022;12.148;2023-12-29T10:03:32;8.40;99.90
792;DHT22;379;49.022;12.148;2023-12-29T10:06:00;8.50;99.90
792;DHT22;379;49.022;12.148;2023-12-29T10:08:32;8.60;99.90
792;DHT22;379;49.022;12.148;2023-12-29T10:11:02;8.90;99.90
792;DHT22;379;49.022;12.148;2023-12-29T10:13:30;9.10;99.90
792;DHT22;379;49.022;12.148;2023-12-29T10:16:07;9.30;99.90
792;DHT22;379;49.022;12.148;2023-12-29T10:18:40;9.50;99.90
792;DHT22;379;49.022;12.148;2023-12-29T10:21:16;9.60;99.90
792;DHT22;379;49.022;12.148;2023-12-29T10:23:50;9.70;99.90
792;DHT22;379;49.022;12.148;2023-12-29T10:26:19;9.80;99.90
792;DHT22;379;49.022;12.148;2023-12-29T10:28:47;9.90;99.90
792;DHT22;379;49.022;12.148;2023-12-29T10:31:15;9.80;99.90
792;DHT22;379;49.022;12.148;2023-12-29T10:33:42;9.80;99.90
792;DHT22;379;49.022;12.148;2023-12-29T10:36:09;9.70;99.90
792;DHT22;379;49.022;12.148;2023-12-29T10:38:39;9.70;99.90
792;DHT22;379;49.022;12.148;2023-12-29T10:41:11;9.60;99.90
792;DHT22;379;49.022;12.148;2023-12-29T10:43:40;9.60;99.90
792;DHT22;379;49.022;12.148;2023-12-29T10:46:08;9.60;99.90
792;DHT22;379;49.022;12.148;2023-12-29T10:48:35;9.70;99.90
792;DHT22;379;49.022;12.148;2023-12-29T10:51:02;9.90;99.90
792;DHT22;379;49.022;12.148;2023-12-29T10:53:30;10.20;99.90
792;DHT22;379;49.022;12.148;2023-12-29T10:55:56;10.40;99.90
792;DHT22;379;49.022;12.148;2023-12-29T10:58:24;10.50;99.90
792;DHT22;379;49.022;12.148;2023-12-29T11:00:54;10.60;99.90
792;DHT22;379;49.022;12.148;2023-12-29T11:03:21;10.60;99.90
792;DHT22;379;49.022;12.148;2023-12-29T11:05:48;10.70;99.90
792;DHT22;379;49.022;12.148;2023-12-29T11:08:16;10.70;99.90
792;DHT22;379;49.022;12.148;2023-12-29T11:10:43;10.80;99.90
792;DHT22;379;49.022;12.148;2023-12-29T11:13:11;10.90;99.90
792;DHT22;379;49.022;12.148;2023-12-29T11:15:42;10.90;99.90
792;DHT22;379;49.022;12.148;2023-12-29T11:18:13;10.90;99.90
792;DHT22;379;49.022;12.148;2023-12-29T11:20:41;10.90;99.90
792;DHT22;379;49.022;12.148;2023-12-29T11:23:09;11.00;99.90
792;DHT22;379;49.022;12.148;2023-12-29T11:25:36;11.00;99.90
792;DHT22;379;49.022;12.148;2023-12-29T11:28:05;11.10;99.90
792;DHT22;379;49.022;12.148;2023-12-29T11:30:32;11.00;99.90
792;DHT22;379;49.022;12.148;2023-12-29T11:33:01;11.00;99.90
792;DHT22;379;49.022;12.148;2023-12-29T11:35:35;10.90;99.90
792;DHT22;379;49.022;12.148;2023-12-29T11:38:22;10.80;99.90
792;DHT22;379;49.022;12.148;2023-12-29T11:40:59;10.80;99.90
792;DHT22;379;49.022;12.148;2023-12-29T11:43:27;10.90;99.90
792;DHT22;379;49.022;12.148;2023-12-29T11:45:55;11.00;99.90
792;DHT22;379;49.022;12.148;2023-12-29T11:48:52;11.00;99.90
792;DHT22;379;49.022;12.148;2023-12-29T11:51:30;11.00;99.90
792;DHT22;379;49.022;12.148;2023-12-29T11:53:58;10.90;99.90
792;DHT22;379;49.022;12.148;2023-12-29T11:56:30;10.90;99.90
792;DHT22;379;49.022;12.148;2023-12-29T11:59:03;10.90;99.90
792;DHT22;379;49.022;12.148;2023-12-29T12:01:38;10.90;99.90
792;DHT22;379;49.022;12.148;2023-12-29T12:04:05;10.90;99.90
792;DHT22;379;49.022;12.148;2023-12-29T12:06:53;10.90;99.90
792;DHT22;379;49.022;12.148;2023-12-29T12:09:22;11.00;99.90
792;DHT22;379;49.022;12.148;2023-12-29T12:11:50;11.00;99.90
792;DHT22;379;49.022;12.148;2023-12-29T12:14:43;11.10;99.90
792;DHT22;379;49.022;12.148;2023-12-29T12:17:10;11.30;99.90
792;DHT22;379;49.022;12.148;2023-12-29T12:19:37;11.40;99.90
792;DHT22;379;49.022;12.148;2023-12-29T12:22:06;11.40;99.90
792;DHT22;379;49.022;12.148;2023-12-29T12:24:35;11.40;99.90
792;DHT22;379;49.022;12.148;2023-12-29T12:27:02;11.30;99.90
792;DHT22;379;49.022;12.148;2023-12-29T12:29:29;11.30;99.90
792;DHT22;379;49.022;12.148;2023-12-29T12:31:57;11.30;99.90
792;DHT22;379;49.022;12.148;2023-12-29T12:34:24;11.20;99.90
792;DHT22;379;49.022;12.148;2023-12-29T12:36:52;11.20;99.90
792;DHT22;379;49.022;12.148;2023-12-29T12:39:23;11.20;99.90
792;DHT22;379;49.022;12.148;2023-12-29T12:41:50;11.10;99.90
792;DHT22;379;49.022;12.148;2023-12-29T12:44:17;11.20;99.90
792;DHT22;379;49.022;12.148;2023-12-29T12:46:51;11.30;99.90
792;DHT22;379;49.022;12.148;2023-12-29T12:49:22;11.30;99.90
792;DHT22;379;49.022;12.148;2023-12-29T12:51:49;11.40;99.90
792;DHT22;379;49.022;12.148;2023-12-29T12:54:17;11.40;99.90
792;DHT22;379;49.022;12.148;2023-12-29T12:56:46;11.40;99.90
792;DHT22;379;49.022;12.148;2023-12-29T12:59:13;11.40;99.90
792;DHT22;379;49.022;12.148;2023-12-29T13:01:41;11.40;99.90
792;DHT22;379;49.022;12.148;2023-12-29T13:04:08;11.40;99.90
792;DHT22;379;49.022;12.148;2023-12-29T13:06:42;11.40;99.90
792;DHT22;379;49.022;12.148;2023-12-29T13:09:10;11.30;99.90
792;DHT22;379;49.022;12.148;2023-12-29T13:11:38;11.30;99.90
792;DHT22;379;49.022;12.148;2023-12-29T13:14:07;11.30;99.90
792;DHT22;379;49.022;12.148;2023-12-29T13:16:35;11.20;99.90
792;DHT22;379;49.022;12.148;2023-12-29T13:19:18;11.20;99.90
792;DHT22;379;49.022;12.148;2023-12-29T13:21:48;11.00;99.90
792;DHT22;379;49.022;12.148;2023-12-29T13:24:15;10.90;99.90
792;DHT22;379;49.022;12.148;2023-12-29T13:26:44;10.90;99.90
792;DHT22;379;49.022;12.148;2023-12-29T13:29:13;10.80;99.90
792;DHT22;379;49.022;12.148;2023-12-29T13:31:40;10.80;99.90
792;DHT22;379;49.022;12.148;2023-12-29T13:34:12;10.80;99.90
792;DHT22;379;49.022;12.148;2023-12-29T13:36:43;10.80;99.90
792;DHT22;379;49.022;12.148;2023-12-29T13:39:20;10.80;99.90
792;DHT22;379;49.022;12.148;2023-12-29T13:41:48;10.80;99.90
792;DHT22;379;49.022;12.148;2023-12-29T13:44:17;10.70;99.90
792;DHT22;379;49.022;12.148;2023-12-29T13:46:45;10.70;99.90
792;DHT22;379;49.022;12.148;2023-12-29T13:49:13;10.60;99.90
792;DHT22;379;49.022;12.148;2023-12-29T13:51:41;10.60;99.90
792;DHT22;379;49.022;12.148;2023-12-29T13:54:08;10.50;99.90
792;DHT22;379;49.022;12.148;2023-12-29T13:56:35;10.40;99.90
792;DHT22;379;49.022;12.148;2023-12-29T13:59:03;10.30;99.90
792;DHT22;379;49.022;12.148;2023-12-29T14:01:37;10.20;99.90
792;DHT22;379;49.022;12.148;2023-12-29T14:04:07;10.00;99.90
792;DHT22;379;49.022;12.148;2023-12-29T14:06:41;10.00;99.90
792;DHT22;379;49.022;12.148;2023-12-29T14:09:14;9.90;99.90
792;DHT22;379;49.022;12.148;2023-12-29T14:11:44;9.90;99.90
792;DHT22;379;49.022;12.148;2023-12-29T14:14:11;9.80;99.90
792;DHT22;379;49.022;12.148;2023-12-29T14:16:40;9.80;99.90
792;DHT22;379;49.022;12.148;2023-12-29T14:19:07;9.80;99.90
792;DHT22;379;49.022;12.148;2023-12-29T14:21:34;9.70;99.90
792;DHT22;379;49.022;12.148;2023-12-29T14:24:08;9.70;99.90
792;DHT22;379;49.022;12.148;2023-12-29T14:26:35;9.60;99.90
792;DHT22;379;49.022;12.148;2023-12-29T14:29:03;9.60;99.90
792;DHT22;379;49.022;12.148;2023-12-29T14:31:32;9.60;99.90
792;DHT22;379;49.022;12.148;2023-12-29T14:34:02;9.50;99.90
792;DHT22;379;49.022;12.148;2023-12-29T14:36:29;9.50;99.90
792;DHT22;379;49.022;12.148;2023-12-29T14:38:58;9.50;99.90
792;DHT22;379;49.022;12.148;2023-12-29T14:41:25;9.40;99.90
792;DHT22;379;49.022;12.148;2023-12-29T14:43:52;9.40;99.90
792;DHT22;379;49.022;12.148;2023-12-29T14:46:19;9.30;99.90
792;DHT22;379;49.022;12.148;2023-12-29T14:48:46;9.20;99.90
792;DHT22;379;49.022;12.148;2023-12-29T14:51:15;9.20;99.90
792;DHT22;379;49.022;12.148;2023-12-29T14:53:43;9.20;99.90
792;DHT22;379;49.022;12.148;2023-12-29T14:56:10;9.10;99.90
792;DHT22;379;49.022;12.148;2023-12-29T14:58:37;9.00;99.90
792;DHT22;379;49.022;12.148;2023-12-29T15:01:04;9.00;99.90
792;DHT22;379;49.022;12.148;2023-12-29T15:03:31;9.00;99.90
792;DHT22;379;49.022;12.148;2023-12-29T15:05:58;9.00;99.90
792;DHT22;379;49.022;12.148;2023-12-29T15:08:26;9.00;99.90
792;DHT22;379;49.022;12.148;2023-12-29T15:10:57;9.00;99.90
792;DHT22;379;49.022;12.148;2023-12-29T15:13:24;9.00;99.90
792;DHT22;379;49.022;12.148;2023-12-29T15:15:52;9.00;99.90
792;DHT22;379;49.022;12.148;2023-12-29T15:18:19;9.00;99.90
792;DHT22;379;49.022;12.148;2023-12-29T15:20:46;9.00;99.90
792;DHT22;379;49.022;12.148;2023-12-29T15:23:12;9.00;99.90
792;DHT22;379;49.022;12.148;2023-12-29T15:25:40;9.00;99.90
792;DHT22;379;49.022;12.148;2023-12-29T15:28:08;9.00;99.90
792;DHT22;379;49.022;12.148;2023-12-29T15:30:34;9.00;99.90
792;DHT22;379;49.022;12.148;2023-12-29T15:33:01;9.00;99.90
792;DHT22;379;49.022;12.148;2023-12-29T15:35:28;9.10;99.90
792;DHT22;379;49.022;12.148;2023-12-29T15:37:55;9.10;99.90
792;DHT22;379;49.022;12.148;2023-12-29T15:40:21;9.00;99.90
792;DHT22;379;49.022;12.148;2023-12-29T15:42:49;9.10;99.90
792;DHT22;379;49.022;12.148;2023-12-29T15:45:16;9.00;99.90
792;DHT22;379;49.022;12.148;2023-12-29T15:47:44;9.00;99.90
792;DHT22;379;49.022;12.148;2023-12-29T15:50:11;9.00;99.90
792;DHT22;379;49.022;12.148;2023-12-29T15:52:37;9.00;99.90
792;DHT22;379;49.022;12.148;2023-12-29T15:55:05;8.90;99.90
792;DHT22;379;49.022;12.148;2023-12-29T15:57:32;8.90;99.90
792;DHT22;379;49.022;12.148;2023-12-29T16:00:01;9.00;99.90
792;DHT22;379;49.022;12.148;2023-12-29T16:02:29;8.90;99.90
792;DHT22;379;49.022;12.148;2023-12-29T16:04:56;8.80;99.90
792;DHT22;379;49.022;12.148;2023-12-29T16:07:22;8.70;99.90
792;DHT22;379;49.022;12.148;2023-12-29T16:09:49;8.70;99.90
792;DHT22;379;49.022;12.148;2023-12-29T16:12:16;8.60;99.90
792;DHT22;379;49.022;12.148;2023-12-29T16:14:43;8.50;99.90
792;DHT22;379;49.022;12.148;2023-12-29T16:17:11;8.50;99.90
792;DHT22;379;49.022;12.148;2023-12-29T16:19:38;8.50;99.90
792;DHT22;379;49.022;12.148;2023-12-29T16:22:05;8.40;99.90
792;DHT22;379;49.022;12.148;2023-12-29T16:24:32;8.40;99.90
792;DHT22;379;49.022;12.148;2023-12-29T16:26:58;8.40;99.90
792;DHT22;379;49.022;12.148;2023-12-29T16:29:25;8.40;99.90
792;DHT22;379;49.022;12.148;2023-12-29T16:31:52;8.60;99.90
792;DHT22;379;49.022;12.148;2023-12-29T16:34:20;8.60;99.90
792;DHT22;379;49.022;12.148;2023-12-29T16:36:56;8.60;99.90